Time;durP1;ratioP1;P1;durP2;ratioP2;P2;SDS_P1;SDS_P2;PMS_P1;PMS_P2;Temp;Humidity;BMP_temperature;BMP_pressure;BME280_temperature;BME280_humidity;BME280_pressure;Samples;Min_cycle;Max_cycle;Signal;HPM_P1;HPM_P2
2022/10/21 05:58:16;;;;;;;5.53;4.80;;;;;;;;;;10577921;27;20401;-81
2022/10/21 06:03:20;;;;;;;5.65;4.68;;;;;;;;;;10554808;28;20029;-82
2022/10/21 06:08:25;;;;;;;6.13;4.55;;;;;;;;;;10553920;28;20060;-82
2022/10/21 06:13:26;;;;;;;4.82;4.07;;;;;;;;;;10536356;28;20048;-82
2022/10/21 06:18:28;;;;;;;5.65;4.32;;;;;;;;;;10553380;28;20116;-82
2022/10/21 06:23:32;;;;;;;4.95;4.40;;;;;;;;;;10553207;28;20056;-82
2022/10/21 06:28:34;;;;;;;5.53;4.20;;;;;;;;;;10552972;28;20028;-82
2022/10/21 06:33:35;;;;;;;5.55;4.50;;;;;;;;;;10551804;28;20057;-82
2022/10/21 06:38:37;;;;;;;5.72;4.60;;;;;;;;;;10551339;28;20024;-82
2022/10/21 06:43:40;;;;;;;5.28;3.85;;;;;;;;;;10553248;28;20028;-82
2022/10/21 06:48:41;;;;;;;4.30;3.60;;;;;;;;;;10550939;28;20113;-82
2022/10/21 06:53:50;;;;;;;4.93;3.80;;;;;;;;;;10551017;28;20032;-82
2022/10/21 06:58:52;;;;;;;5.15;4.65;;;;;;;;;;10550635;28;20029;-82
2022/10/21 07:03:53;;;;;;;3.92;3.40;;;;;;;;;;10540233;28;20465;-80
2022/10/21 07:08:55;;;;;;;3.95;3.33;;;;;;;;;;10529664;28;20033;-80
2022/10/21 07:13:56;;;;;;;5.40;4.25;;;;;;;;;;10523845;28;20119;-79
2022/10/21 07:18:57;;;;;;;6.05;4.47;;;;;;;;;;10530821;28;20059;-81
2022/10/21 07:23:59;;;;;;;6.70;4.00;;;;;;;;;;10528855;28;20024;-81
2022/10/21 07:29:01;;;;;;;6.38;4.57;;;;;;;;;;10530010;28;20028;-83
2022/10/21 07:34:03;;;;;;;7.13;4.85;;;;;;;;;;10528316;28;20035;-82
2022/10/21 07:39:05;;;;;;;8.27;5.20;;;;;;;;;;10527110;28;20096;-81
2022/10/21 07:44:07;;;;;;;7.70;4.93;;;;;;;;;;10528519;28;20111;-81
2022/10/21 07:49:09;;;;;;;5.90;4.63;;;;;;;;;;10536131;28;20024;-82
2022/10/21 07:54:10;;;;;;;7.20;5.00;;;;;;;;;;10539518;28;20028;-81
2022/10/21 07:59:11;;;;;;;7.43;4.70;;;;;;;;;;10542241;28;20103;-81
2022/10/21 08:04:13;;;;;;;7.03;4.53;;;;;;;;;;10550487;28;20038;-79
2022/10/21 08:09:14;;;;;;;6.03;4.43;;;;;;;;;;10548998;28;20016;-79
2022/10/21 08:14:15;;;;;;;6.45;4.35;;;;;;;;;;10522626;28;20035;-80
2022/10/21 08:19:17;;;;;;;8.10;5.18;;;;;;;;;;10521503;28;20078;-80
2022/10/21 08:24:18;;;;;;;6.90;4.82;;;;;;;;;;10522925;28;20020;-81
2022/10/21 08:29:20;;;;;;;6.57;5.13;;;;;;;;;;10522288;28;20078;-80
2022/10/21 08:34:21;;;;;;;8.48;4.90;;;;;;;;;;10525559;28;20026;-79
2022/10/21 08:39:23;;;;;;;8.38;5.82;;;;;;;;;;10519840;28;20021;-80
2022/10/21 08:44:35;;;;;;;7.80;5.32;;;;;;;;;;10521749;28;20168;-81
2022/10/21 08:49:42;;;;;;;8.35;7.03;;;;;;;;;;10519369;28;20029;-79
2022/10/21 08:54:46;;;;;;;5.88;4.80;;;;;;;;;;10526231;28;20032;-79
2022/10/21 08:59:47;;;;;;;8.35;5.32;;;;;;;;;;10528213;28;20338;-79
2022/10/21 09:04:52;;;;;;;10.45;5.07;;;;;;;;;;10527753;28;20060;-79
2022/10/21 09:09:56;;;;;;;5.88;4.35;;;;;;;;;;10527425;28;20032;-79
2022/10/21 09:14:58;;;;;;;6.07;3.97;;;;;;;;;;10527678;28;20475;-80
2022/10/21 09:20:02;;;;;;;9.40;5.30;;;;;;;;;;10529273;28;20096;-80
2022/10/21 09:25:03;;;;;;;5.82;3.95;;;;;;;;;;10527040;28;20036;-81
2022/10/21 09:30:06;;;;;;;6.43;4.50;;;;;;;;;;10525112;28;20037;-80
2022/10/21 09:35:10;;;;;;;6.25;3.95;;;;;;;;;;10524626;28;20059;-80
2022/10/21 09:40:16;;;;;;;7.13;3.95;;;;;;;;;;10525749;28;20056;-80
2022/10/21 09:45:20;;;;;;;7.03;3.60;;;;;;;;;;10521948;28;20043;-80
2022/10/21 09:50:21;;;;;;;4.85;3.38;;;;;;;;;;10527121;28;20040;-80
2022/10/21 09:55:22;;;;;;;6.68;3.50;;;;;;;;;;10529769;28;20036;-81
2022/10/21 10:00:53;;;;;;;5.70;4.05;;;;;;;;;;10527611;28;20060;-81
2022/10/21 10:05:54;;;;;;;7.70;4.40;;;;;;;;;;10500181;28;20068;-80
2022/10/21 10:11:02;;;;;;;9.35;3.72;;;;;;;;;;10518646;28;20109;-78
2022/10/21 10:16:23;;;;;;;6.35;3.25;;;;;;;;;;10518352;28;20033;-79
2022/10/21 10:21:24;;;;;;;;;;;;;;;;;;10514768;28;20025;-78
2022/10/21 10:26:29;;;;;;;5.90;3.28;;;;;;;;;;10529082;28;19905;-79
2022/10/21 10:31:34;;;;;;;8.18;3.33;;;;;;;;;;10516511;28;20108;-79
2022/10/21 10:36:39;;;;;;;7.88;3.50;;;;;;;;;;10516695;28;20024;-81
2022/10/21 10:41:44;;;;;;;6.70;3.42;;;;;;;;;;10517938;28;20040;-80
2022/10/21 10:46:51;;;;;;;9.18;4.25;;;;;;;;;;10537401;28;20025;-79
2022/10/21 10:52:11;;;;;;;6.50;3.50;;;;;;;;;;10538007;28;20213;-80
2022/10/21 10:57:14;;;;;;;6.07;3.25;;;;;;;;;;10528959;28;20395;-81
2022/10/21 11:02:21;;;;;;;7.55;3.50;;;;;;;;;;10530414;28;20028;-81
2022/10/21 11:07:33;;;;;;;6.80;3.58;;;;;;;;;;10526653;28;20102;-80
2022/10/21 11:12:34;;;;;;;6.03;3.33;;;;;;;;;;10528926;28;20056;-81
2022/10/21 11:17:40;;;;;;;5.63;2.95;;;;;;;;;;10529198;28;20021;-81
2022/10/21 11:22:55;;;;;;;7.53;3.25;;;;;;;;;;10529770;28;20044;-80
2022/10/21 11:27:55;;;;;;;5.10;2.85;;;;;;;;;;10507133;28;20033;-81
2022/10/21 11:33:23;;;;;;;8.15;3.25;;;;;;;;;;10514489;28;20040;-82
2022/10/21 11:38:43;;;;;;;4.82;2.80;;;;;;;;;;10488557;28;20040;-81
2022/10/21 11:44:08;;;;;;;5.38;2.65;;;;;;;;;;10521078;28;20040;-82
2022/10/21 11:49:22;;;;;;;7.10;3.15;;;;;;;;;;10522743;28;20067;-81
2022/10/21 11:54:38;;;;;;;5.25;2.90;;;;;;;;;;10521917;28;20040;-80
2022/10/21 11:59:58;;;;;;;6.43;3.30;;;;;;;;;;10424097;22;20057;-81
2022/10/21 12:05:19;;;;;;;6.67;3.30;;;;;;;;;;10403559;28;20030;-82
2022/10/21 12:10:20;;;;;;;;;;;;;;;;;;10425525;28;20041;-83
2022/10/21 12:15:26;;;;;;;4.72;3.10;;;;;;;;;;10398146;28;19920;-80
2022/10/21 12:20:46;;;;;;;5.20;3.10;;;;;;;;;;10388074;28;20080;-80
2022/10/21 12:25:47;;;;;;;5.33;3.20;;;;;;;;;;10404768;28;20022;-80
2022/10/21 12:30:55;;;;;;;5.85;3.33;;;;;;;;;;10404521;28;20675;-79
2022/10/21 12:36:13;;;;;;;4.82;3.38;;;;;;;;;;10403142;28;20120;-79
2022/10/21 12:41:23;;;;;;;4.70;2.55;;;;;;;;;;10397888;28;20128;-80
2022/10/21 12:46:27;;;;;;;4.57;2.50;;;;;;;;;;10383510;28;20026;-79
2022/10/21 12:51:33;;;;;;;4.28;2.35;;;;;;;;;;10400262;28;20480;-80
2022/10/21 12:56:36;;;;;;;4.38;2.10;;;;;;;;;;10399692;28;20034;-80
2022/10/21 13:01:37;;;;;;;5.85;2.35;;;;;;;;;;10399838;28;20045;-81
2022/10/21 13:06:55;;;;;;;3.78;2.33;;;;;;;;;;10397646;28;20025;-81
2022/10/21 13:12:11;;;;;;;5.40;2.15;;;;;;;;;;10397528;28;20083;-81
2022/10/21 13:17:36;;;;;;;2.65;1.70;;;;;;;;;;10383972;28;20392;-80
2022/10/21 13:22:41;;;;;;;5.13;2.20;;;;;;;;;;10412250;28;20025;-79
2022/10/21 13:27:44;;;;;;;4.07;1.90;;;;;;;;;;10406583;28;20040;-80
2022/10/21 13:32:58;;;;;;;4.38;1.98;;;;;;;;;;10407923;28;20172;-84
2022/10/21 13:38:05;;;;;;;4.65;2.00;;;;;;;;;;10404426;28;20470;-84
2022/10/21 13:43:15;;;;;;;4.70;1.73;;;;;;;;;;10403022;28;20027;-84
2022/10/21 13:48:18;;;;;;;2.95;1.75;;;;;;;;;;10402013;28;20038;-84
2022/10/21 13:53:21;;;;;;;4.10;1.98;;;;;;;;;;10403212;28;20452;-84
2022/10/21 13:58:23;;;;;;;4.50;1.90;;;;;;;;;;10405159;28;20571;-83
2022/10/21 14:03:25;;;;;;;3.10;1.70;;;;;;;;;;10406460;28;20022;-85
2022/10/21 14:08:30;;;;;;;6.35;2.13;;;;;;;;;;10403176;28;20030;-84
2022/10/21 14:13:34;;;;;;;3.92;1.90;;;;;;;;;;10403992;28;20101;-85
2022/10/21 14:18:41;;;;;;;5.97;1.80;;;;;;;;;;10409597;28;20528;-84
2022/10/21 14:23:45;;;;;;;6.30;2.40;;;;;;;;;;10410103;28;20089;-81
2022/10/21 14:28:47;;;;;;;3.88;1.50;;;;;;;;;;10410643;28;20022;-83
2022/10/21 14:33:48;;;;;;;3.75;1.65;;;;;;;;;;10415170;28;20149;-80
2022/10/21 14:38:50;;;;;;;3.58;1.63;;;;;;;;;;10414537;28;20399;-80
2022/10/21 14:43:52;;;;;;;3.45;1.80;;;;;;;;;;10417682;28;20029;-80
2022/10/21 14:48:58;;;;;;;6.28;1.48;;;;;;;;;;10416759;28;20034;-80
2022/10/21 14:54:08;;;;;;;4.75;1.67;;;;;;;;;;10417534;28;20506;-80
2022/10/21 14:59:48;;;;;;;2.95;1.50;;;;;;;;;;10413986;28;20037;-81
2022/10/21 15:04:57;;;;;;;2.60;1.65;;;;;;;;;;10323157;28;20034;-80
2022/10/21 15:10:03;;;;;;;2.63;1.73;;;;;;;;;;10397609;28;20030;-83
2022/10/21 15:15:06;;;;;;;4.28;1.85;;;;;;;;;;10410722;28;20049;-85
2022/10/21 15:20:14;;;;;;;2.75;1.55;;;;;;;;;;10395048;28;20388;-84
2022/10/21 15:25:18;;;;;;;2.75;1.70;;;;;;;;;;10410032;28;20030;-84
2022/10/21 15:30:20;;;;;;;2.80;2.17;;;;;;;;;;10411738;28;20030;-83
2022/10/21 15:35:22;;;;;;;3.75;2.63;;;;;;;;;;10411454;28;20482;-83
2022/10/21 15:40:23;;;;;;;4.40;2.55;;;;;;;;;;10396975;28;20029;-82
2022/10/21 15:45:24;;;;;;;3.05;1.88;;;;;;;;;;10411920;28;20061;-81
2022/10/21 15:50:27;;;;;;;3.97;2.00;;;;;;;;;;10398674;28;20084;-83
2022/10/21 15:55:28;;;;;;;7.60;3.35;;;;;;;;;;10417212;28;20034;-83
2022/10/21 16:00:31;;;;;;;4.65;3.20;;;;;;;;;;10422118;28;20030;-84
2022/10/21 16:05:32;;;;;;;4.72;2.63;;;;;;;;;;10434476;28;20009;-84
2022/10/21 16:10:42;;;;;;;3.60;2.50;;;;;;;;;;10422747;28;20041;-83
2022/10/21 16:15:43;;;;;;;3.80;2.03;;;;;;;;;;10394701;28;20403;-81
2022/10/21 16:20:44;;;;;;;6.65;3.75;;;;;;;;;;10404989;28;20042;-80
2022/10/21 16:25:45;;;;;;;4.50;3.20;;;;;;;;;;10408677;28;20202;-84
